Lockwood, CA

2:35 PM PDT on September 17, 2014 (GMT -0700)
Ranchos Del Lago | Change Station
CLOSE
Current Station
Personal Weather Station
Location: Lake Nacimiento, CA
Elevation: 1000 ft
Nearby Weather Stations

Elev 1000 ft 35.75 °N, 121.02 °W | Updated 4 seconds ago

Clear
Clear
88.2 °F
Feels Like 85 °F
N
0.0
Wind Variable Wind from WSW
Gusts 10.0 mph

Today
High -- | Low -- °F
--% Chance of Precip.
Yesterday
High -- | Low -- °F
Precip. -- in
6:48 AM 7:08 PM
Waning Crescent, 33% visible
Pressure 29.78 in
Visibility 10.0 miles
Clouds Clear
Heat Index 85 °F
Dew Point 48 °F
Humidity 25%
Rainfall 0.00 in
Snow Depth 1 in , 0 in , 0 in
UV 8 out of 12
Pollen 6.90 out of 12
Air Quality Not available.
Flu Activity Not available.
SPECI KPRB 172115Z AUTO 19016G23KT 10SM CLR 35/09 A2978 RMK AO2 WSHFT 2055 T03500094

More Conditions Fewer Conditions

Pressure 29.78 in
Visibility 10.0 miles
Clouds Clear
Heat Index 85 °F
Dew Point 48 °F
Humidity 25%
Rainfall 0.00 in
Snow Depth 1 in , 0 in , 0 in
UV 8 out of 12
Pollen 6.90 out of 12
Air Quality Not available.
Flu Activity Not available.
SPECI KPRB 172115Z AUTO 19016G23KT 10SM CLR 35/09 A2978 RMK AO2 WSHFT 2055 T03500094

More Conditions Fewer Conditions

10-Day Weather Forecast

Almanac

Astronomy

Sep. 17, 2014 Rise Set
Actual Time 6:48 AM PDT 7:08 PM PDT
Civil Twilight 6:23 AM PDT 7:34 PM PDT
Nautical Twilight 5:53 AM PDT 8:04 PM PDT
Astronomical Twilight 5:22 AM PDT 8:34 PM PDT
Moon 1:01 AM PDT 3:14 PM PDT
Length of Visible Light 13h 11m
Length of Day
12h 19m
Tomorrow will be 2m 15s shorter.
Waning Crescent, 33% of the Moon is Illuminated
Today
Waning Crescent
Sep 24
New
Oct 1
First Quarter
Oct 8
Full
Oct 15
Last Quarter

Today's Extremes

State Highs State Lows

Community

WunderPhotos

Upload Photos

1,754,170 photos uploaded!

Nearby

Snow Depth

Station Depth Elevation
CSS Lab 1 in 6900 ft
Tahoe City Cross 0 in 6750 ft
Rubicon #2 0 in 7500 ft
Leavitt Meadows 0 in 7200 ft
Echo Peak 0 in 7800 ft

Earthquake Activity

City Distance Mag. Time & Date
No recent earthquake activity has been reported nearby.
Minimum magnitude displayed is 2.5.

Coastal Water Temperatures

Place Temperature
Monterey, CA 61.0 °F
Port San Luis, CA 61.0 °F

Nearby Weather Stations